El-djazair II — 7TBR — position and weather

sailwx.info

Track history (hours):
 
Tides and Currents Weather Stations Pressure Air Temp Water Temp Dewpoint Dewpoint Depression Visibility Wind Speed Wind Dir Waves Ship Positions

El-djazair II

Last reported at 2016-Aug-24 17:18 UTC. Time now 2016-Aug-24 21:30 UTC.
Position N 43°18' E 005°22'.

Length 146 m; draft 6.3 m.

Type: Passenger vessel. MMSI: 605026190.

Date/timePositionNaut miles runAvg speedWind from/ knotsBaromVisibWave heightAir tempDewpointWater temp
2016-Aug-24 17:18N 43°18' E 005°22'0 0.0
2016-Aug-24 14:30N 43°18' E 005°22'0 0.3
2016-Aug-24 12:33N 43°18' E 005°21'23422.5
2016-Aug-24 02:08N 39°27' E 006°17'231 8.7
2016-Aug-22 23:34N 42°54' E 008°33'2323.2
2016-Aug-22 22:34N 43°16' E 008°40'2323.0
2016-Aug-22 21:34N 43°39' E 008°46'2323.0
2016-Aug-22 20:33N 44°01' E 008°53'2222.0
2016-Aug-22 19:34N 44°23' E 008°57'2 1.8
2016-Aug-22 18:29N 44°25' E 008°55'0 0.0
2016-Aug-22 17:32N 44°25' E 008°55'1 1.2
2016-Aug-22 16:34N 44°24' E 008°56'1313.1
2016-Aug-22 15:34N 44°12' E 009°03'2323.0
2016-Aug-22 14:34N 43°50' E 009°12'2323.2
2016-Aug-22 13:34N 43°28' E 009°22'26722.2
2016-Aug-22 01:32N 39°01' E 009°34'2121.1
2016-Aug-22 00:32N 38°47' E 009°14'301 9.7
2016-Aug-20 17:27N 42°52' E 005°24'26 9.0
2016-Aug-20 14:30N 43°18' E 005°22'0 0.0
2016-Aug-20 13:16N 43°18' E 005°22'5 6.8
2016-Aug-20 12:34N 43°14' E 005°18'11622.7
2016-Aug-20 07:27N 41°41' E 003°43'2021.7
2016-Aug-20 06:33N 41°26' E 003°28'2221.9
2016-Aug-20 05:33N 41°09' E 003°10'2221.8
2016-Aug-20 04:34N 40°51' E 002°53'2222.3
2016-Aug-20 03:33N 40°34' E 002°35'2322.6
2016-Aug-20 02:33N 40°15' E 002°17'2323.1
2016-Aug-20 01:33N 39°57' E 001°59'2823.4
2016-Aug-20 00:22N 39°35' E 001°37'1923.2
2016-Aug-19 23:33N 39°20' E 001°22'2323.1
2016-Aug-19 22:33N 39°01' E 001°04'2323.1
2016-Aug-19 21:34N 38°40' E 000°52'2323.1
2016-Aug-19 20:33N 38°19' E 000°42'2422.7
2016-Aug-19 19:31N 37°57' E 000°30'2222.9
2016-Aug-19 18:32N 37°36' E 000°20'2322.8
2016-Aug-19 17:31N 37°14' E 000°10'2222.6
2016-Aug-19 16:33N 36°54' E 000°00'2322.5
2016-Aug-19 15:33N 36°33' W 000°11'2322.6
2016-Aug-19 14:33N 36°12' W 000°21'2323.0
2016-Aug-19 13:33N 35°52' W 000°34'10 1.2
2016-Aug-19 05:32N 35°43' W 000°39'3013.0
2016-Aug-19 03:11N 36°13' W 000°34'914.4
2016-Aug-19 02:32N 36°22' W 000°33'2814.0
2016-Aug-19 00:32N 36°50' W 000°29'1414.1
2016-Aug-18 23:33N 37°04' W 000°28'1514.6
2016-Aug-18 22:33N 37°18' W 000°26'1514.7
2016-Aug-18 21:33N 37°33' W 000°24'1514.5
2016-Aug-18 20:33N 37°47' W 000°20'1513.9
2016-Aug-18 19:31N 38°02' W 000°20'1213.1
2016-Aug-18 18:33N 38°14' W 000°22'13 1.1
2016-Aug-18 06:33N 38°10' W 000°07'3718.5
2016-Aug-18 04:33N 37°53' E 000°35'4621.9
2016-Aug-18 02:29N 37°32' E 001°26'2522.3
2016-Aug-18 01:22N 37°21' E 001°54'4921.8
2016-Aug-17 23:08N 37°01' E 002°50'1321.6
2016-Aug-17 22:33N 36°56' E 003°04'9 0.6
2016-Aug-17 07:07N 36°47' E 003°04'11 3.9
2016-Aug-17 04:14N 36°58' E 003°08'1319.7
2016-Aug-17 03:33N 36°58' E 002°51'4119.6
2016-Aug-17 01:29N 37°15' E 002°05'2719.7
2016-Aug-17 00:08N 37°27' E 001°35'1119.2
2016-Aug-16 23:33N 37°32' E 001°23'1919.3
2016-Aug-16 22:33N 37°41' E 001°01'2519.6
2016-Aug-16 21:16N 37°53' E 000°33'1519.9
2016-Aug-16 20:30N 38°00' E 000°16'2019.7
2016-Aug-16 19:30N 38°09' W 000°06'14 0.9
2016-Aug-16 04:31N 38°00' W 000°19'2121.5
2016-Aug-16 03:33N 37°40' W 000°25'4821.8
2016-Aug-16 01:22N 36°53' W 000°29'1821.9
2016-Aug-16 00:33N 36°35' W 000°33'53 7.5
2016-Aug-15 17:31N 35°43' W 000°39'97 5.1
2016-Aug-14 22:27N 37°19' W 000°26'1414.4
2016-Aug-14 21:28N 37°33' W 000°24'  
Track history (hours):
 
Tides and Currents Weather Stations Pressure Air Temp Water Temp Dewpoint Dewpoint Depression Visibility Wind Speed Wind Dir Waves Ship Positions

El-djazair II

Last reported at 2016-Aug-24 17:18 UTC. Time now 2016-Aug-24 21:30 UTC.
Position N 43°18' E 005°22'.

Length 146 m; draft 6.3 m.

Type: Passenger vessel. MMSI: 605026190.

Date/timePositionNaut miles runAvg speedWind from/ knotsBaromVisibWave heightAir tempDewpointWater temp
2016-Aug-24 17:18N 43°18' E 005°22'0 0.0
2016-Aug-24 14:30N 43°18' E 005°22'0 0.3
2016-Aug-24 12:33N 43°18' E 005°21'23422.5
2016-Aug-24 02:08N 39°27' E 006°17'231 8.7
2016-Aug-22 23:34N 42°54' E 008°33'2323.2
2016-Aug-22 22:34N 43°16' E 008°40'2323.0
2016-Aug-22 21:34N 43°39' E 008°46'2323.0
2016-Aug-22 20:33N 44°01' E 008°53'2222.0
2016-Aug-22 19:34N 44°23' E 008°57'2 1.8
2016-Aug-22 18:29N 44°25' E 008°55'0 0.0
2016-Aug-22 17:32N 44°25' E 008°55'1 1.2
2016-Aug-22 16:34N 44°24' E 008°56'1313.1
2016-Aug-22 15:34N 44°12' E 009°03'2323.0
2016-Aug-22 14:34N 43°50' E 009°12'2323.2
2016-Aug-22 13:34N 43°28' E 009°22'26722.2
2016-Aug-22 01:32N 39°01' E 009°34'2121.1
2016-Aug-22 00:32N 38°47' E 009°14'301 9.7
2016-Aug-20 17:27N 42°52' E 005°24'26 9.0
2016-Aug-20 14:30N 43°18' E 005°22'0 0.0
2016-Aug-20 13:16N 43°18' E 005°22'5 6.8
2016-Aug-20 12:34N 43°14' E 005°18'11622.7
2016-Aug-20 07:27N 41°41' E 003°43'2021.7
2016-Aug-20 06:33N 41°26' E 003°28'2221.9
2016-Aug-20 05:33N 41°09' E 003°10'2221.8
2016-Aug-20 04:34N 40°51' E 002°53'2222.3
2016-Aug-20 03:33N 40°34' E 002°35'2322.6
2016-Aug-20 02:33N 40°15' E 002°17'2323.1
2016-Aug-20 01:33N 39°57' E 001°59'2823.4
2016-Aug-20 00:22N 39°35' E 001°37'1923.2
2016-Aug-19 23:33N 39°20' E 001°22'2323.1
2016-Aug-19 22:33N 39°01' E 001°04'2323.1
2016-Aug-19 21:34N 38°40' E 000°52'2323.1
2016-Aug-19 20:33N 38°19' E 000°42'2422.7
2016-Aug-19 19:31N 37°57' E 000°30'2222.9
2016-Aug-19 18:32N 37°36' E 000°20'2322.8
2016-Aug-19 17:31N 37°14' E 000°10'2222.6
2016-Aug-19 16:33N 36°54' E 000°00'2322.5
2016-Aug-19 15:33N 36°33' W 000°11'2322.6
2016-Aug-19 14:33N 36°12' W 000°21'2323.0
2016-Aug-19 13:33N 35°52' W 000°34'10 1.2
2016-Aug-19 05:32N 35°43' W 000°39'3013.0
2016-Aug-19 03:11N 36°13' W 000°34'914.4
2016-Aug-19 02:32N 36°22' W 000°33'2814.0
2016-Aug-19 00:32N 36°50' W 000°29'1414.1
2016-Aug-18 23:33N 37°04' W 000°28'1514.6
2016-Aug-18 22:33N 37°18' W 000°26'1514.7
2016-Aug-18 21:33N 37°33' W 000°24'1514.5
2016-Aug-18 20:33N 37°47' W 000°20'1513.9
2016-Aug-18 19:31N 38°02' W 000°20'1213.1
2016-Aug-18 18:33N 38°14' W 000°22'13 1.1
2016-Aug-18 06:33N 38°10' W 000°07'3718.5
2016-Aug-18 04:33N 37°53' E 000°35'4621.9
2016-Aug-18 02:29N 37°32' E 001°26'2522.3
2016-Aug-18 01:22N 37°21' E 001°54'4921.8
2016-Aug-17 23:08N 37°01' E 002°50'1321.6
2016-Aug-17 22:33N 36°56' E 003°04'9 0.6
2016-Aug-17 07:07N 36°47' E 003°04'11 3.9
2016-Aug-17 04:14N 36°58' E 003°08'1319.7
2016-Aug-17 03:33N 36°58' E 002°51'4119.6
2016-Aug-17 01:29N 37°15' E 002°05'2719.7
2016-Aug-17 00:08N 37°27' E 001°35'1119.2
2016-Aug-16 23:33N 37°32' E 001°23'1919.3
2016-Aug-16 22:33N 37°41' E 001°01'2519.6
2016-Aug-16 21:16N 37°53' E 000°33'1519.9
2016-Aug-16 20:30N 38°00' E 000°16'2019.7
2016-Aug-16 19:30N 38°09' W 000°06'14 0.9
2016-Aug-16 04:31N 38°00' W 000°19'2121.5
2016-Aug-16 03:33N 37°40' W 000°25'4821.8
2016-Aug-16 01:22N 36°53' W 000°29'1821.9
2016-Aug-16 00:33N 36°35' W 000°33'53 7.5
2016-Aug-15 17:31N 35°43' W 000°39'97 5.1
2016-Aug-14 22:27N 37°19' W 000°26'1414.4
2016-Aug-14 21:28N 37°33' W 000°24'  

Dump ship's entire track history